메인 페이지
METAR-TAF:

METAR-TAF

공항 :

멕시코시티, 멕시코

멕시코시티 국제공항

위도: 19-26N, 경도: 099-06W, 고도: 2238m

현재 날씨관측

예보는 21분 전, 20:47시(UTC)에 발표되었습니다.
북북서6kt
온도 27°C
습도 14%
기압 1026 hPa
시정: 14.5km
고도 2000ft 상공 구름 조금
고도 8000ft 상공 구름 보통

METAR: MMMX 192047Z 33006KT 9SM FEW020 SCT080 27/M03 A3029 NOSIG RMK SLP060 57026 915 8/130 HZY

시각: 16:08 (21:08 UTC)

예보

예보는 4 시간 44분 전, 16:24시(UTC)에 발표되었습니다.
예보 대상 시간: 19일 18시부터 20일 24시까지 (UTC)
6kt
시정: 9.7km
고도 3000ft 상공 구름 보통
연무
19일 2000시부터 (UTC)
북북동15kt
시정: 9.7km
고도 3000ft 상공 구름 보통
고도 22000ft 상공 구름 보통
연무
일시적
19일 22시부터 20일 02시까지 (UTC)
고도 3000ft 상공 구름 많음
20일 0300시부터 (UTC)
북북동5kt
시정: 10km
고도 22000ft 상공 구름 보통
전환 중
20일 05시부터 20일 06시까지 (UTC)
kt
20일 1200시부터 (UTC)
5kt
시정: 8.0km
고도 22000ft 상공 구름 보통
연무
20일 1800시부터 (UTC)
8kt
시정: 9.7km
고도 3000ft 상공 구름 보통
연무
전환 중
20일 20시부터 20일 21시까지 (UTC)
12kt

TAF: MMMX 191624Z 1918/2024 01006KT 6SM HZ SCT030 TX28/1922Z TN15/2013Z FM192000 03015KT 6SM HZ SCT030 SCT220 TEMPO 1922/2002 BKN030 FM200300 03005KT P6SM SCT220 BECMG 2005/2006 00000KT FM201200 35005KT 5SM HZ SCT220 FM201800 36008KT 6SM HZ SCT030 BECMG 2020/2021 36012KT

4,000개 이상의 공항 관측 자료 및 예보 (METAR 및 TAF 보고).

지도상에서 검색 가능한 기상관측소가 노란 점과 빨간 점으로 표시되어 있습니다.

기상관측소 명을 보려면 표시 위로 마우스를 이동하세요.

날씨 관측과 예보를 보려면 클릭하세요.

지도 변경 : 확대하려면 엑스 표시가 있는 녹색 버튼, 축소하려면 빼기 표시가 있는 녹색 버튼, 다음 페이지의 지도를 보려면 녹색 화살표를 클릭하세요.


METAR-TAF: